sensor_id;sensor_type;location;lat;lon;timestamp;pressure;altitude;pressure_sealevel;temperature;humidity
62976;BME280;49071;0.000;0.000;2022-08-03T05:31:54;101067.19;;;21.63;48.94
62976;BME280;49071;0.000;0.000;2022-08-03T05:34:55;101066.97;;;21.67;48.61
62976;BME280;49071;0.000;0.000;2022-08-03T05:37:55;101068.34;;;21.71;48.42
62976;BME280;49071;0.000;0.000;2022-08-03T05:40:56;101060.34;;;21.55;48.88
62976;BME280;49071;0.000;0.000;2022-08-03T05:43:56;101063.34;;;21.76;48.42
62976;BME280;49071;0.000;0.000;2022-08-03T05:46:57;101066.41;;;21.87;48.75
62976;BME280;49071;0.000;0.000;2022-08-03T05:49:57;101063.09;;;21.88;48.28
62976;BME280;49071;0.000;0.000;2022-08-03T05:52:57;101063.22;;;21.94;48.49
62976;BME280;49071;0.000;0.000;2022-08-03T05:55:58;101062.75;;;22.10;47.82
62976;BME280;49071;0.000;0.000;2022-08-03T05:58:58;101060.53;;;22.14;47.81
62976;BME280;49071;0.000;0.000;2022-08-03T06:01:58;101068.25;;;22.29;47.51
62976;BME280;49071;0.000;0.000;2022-08-03T06:04:58;101064.84;;;22.40;47.19
62976;BME280;49071;0.000;0.000;2022-08-03T06:07:59;101073.19;;;22.49;47.00
62976;BME280;49071;0.000;0.000;2022-08-03T06:10:59;101070.22;;;22.52;46.94
62976;BME280;49071;0.000;0.000;2022-08-03T06:13:59;101075.16;;;22.57;46.78
62976;BME280;49071;0.000;0.000;2022-08-03T06:17:00;101073.88;;;22.58;46.72
62976;BME280;49071;0.000;0.000;2022-08-03T06:20:00;101071.66;;;22.63;46.60
62976;BME280;49071;0.000;0.000;2022-08-03T06:23:00;101076.59;;;22.68;46.55
62976;BME280;49071;0.000;0.000;2022-08-03T06:26:01;101071.84;;;22.74;46.54
62976;BME280;49071;0.000;0.000;2022-08-03T06:29:01;101074.94;;;22.76;46.46
62976;BME280;49071;0.000;0.000;2022-08-03T06:32:02;101072.94;;;22.76;46.27
62976;BME280;49071;0.000;0.000;2022-08-03T06:35:02;101079.63;;;22.79;46.35
62976;BME280;49071;0.000;0.000;2022-08-03T06:38:03;101081.44;;;22.82;46.45
62976;BME280;49071;0.000;0.000;2022-08-03T06:41:03;101072.22;;;22.82;46.34
62976;BME280;49071;0.000;0.000;2022-08-03T06:44:03;101078.94;;;22.84;46.16
62976;BME280;49071;0.000;0.000;2022-08-03T06:47:04;101079.53;;;22.88;46.61
62976;BME280;49071;0.000;0.000;2022-08-03T06:50:04;101074.94;;;22.91;46.39
62976;BME280;49071;0.000;0.000;2022-08-03T06:53:05;101076.50;;;22.92;46.29
62976;BME280;49071;0.000;0.000;2022-08-03T06:56:06;101078.31;;;22.95;46.44
62976;BME280;49071;0.000;0.000;2022-08-03T06:59:06;101080.47;;;23.00;46.39
62976;BME280;49071;0.000;0.000;2022-08-03T07:02:06;101077.19;;;23.02;46.00
62976;BME280;49071;0.000;0.000;2022-08-03T07:05:09;101072.81;;;23.00;45.88
62976;BME280;49071;0.000;0.000;2022-08-03T07:08:09;101078.47;;;23.00;46.35
62976;BME280;49071;0.000;0.000;2022-08-03T07:11:09;101080.28;;;23.04;46.31
62976;BME280;49071;0.000;0.000;2022-08-03T07:14:10;101082.13;;;23.07;46.19
62976;BME280;49071;0.000;0.000;2022-08-03T07:17:10;101087.06;;;23.12;46.05
62976;BME280;49071;0.000;0.000;2022-08-03T07:20:10;101078.06;;;23.08;46.16
62976;BME280;49071;0.000;0.000;2022-08-03T07:23:12;101078.06;;;23.08;45.86
62976;BME280;49071;0.000;0.000;2022-08-03T07:26:12;101071.91;;;23.09;45.97
62976;BME280;49071;0.000;0.000;2022-08-03T07:29:12;101071.44;;;23.11;46.09
62976;BME280;49071;0.000;0.000;2022-08-03T07:32:13;101077.38;;;23.13;45.82
62976;BME280;49071;0.000;0.000;2022-08-03T07:35:13;101074.84;;;23.15;46.00
62976;BME280;49071;0.000;0.000;2022-08-03T07:38:13;101070.75;;;23.16;46.31
62976;BME280;49071;0.000;0.000;2022-08-03T07:41:13;101069.47;;;23.17;45.86
62976;BME280;49071;0.000;0.000;2022-08-03T07:44:14;101073.34;;;23.19;46.19
62976;BME280;49071;0.000;0.000;2022-08-03T07:47:24;101067.53;;;23.23;46.14
62976;BME280;49071;0.000;0.000;2022-08-03T07:50:24;101077.63;;;23.30;46.35
62976;BME280;49071;0.000;0.000;2022-08-03T07:53:25;101065.53;;;23.29;46.06
62976;BME280;49071;0.000;0.000;2022-08-03T07:56:25;101071.69;;;23.28;46.06
62976;BME280;49071;0.000;0.000;2022-08-03T07:59:26;101070.13;;;23.27;45.97
62976;BME280;49071;0.000;0.000;2022-08-03T08:02:27;101068.34;;;23.29;46.24
62976;BME280;49071;0.000;0.000;2022-08-03T08:05:27;101066.34;;;23.30;46.00
62976;BME280;49071;0.000;0.000;2022-08-03T08:08:28;101069.16;;;23.30;46.21
62976;BME280;49071;0.000;0.000;2022-08-03T08:11:28;101065.06;;;23.31;46.01
62976;BME280;49071;0.000;0.000;2022-08-03T08:14:28;101070.22;;;23.32;45.94
62976;BME280;49071;0.000;0.000;2022-08-03T08:17:29;101074.09;;;23.35;45.97
62976;BME280;49071;0.000;0.000;2022-08-03T08:20:30;101065.94;;;23.37;46.13
62976;BME280;49071;0.000;0.000;2022-08-03T08:23:31;101062.06;;;23.34;46.20
62976;BME280;49071;0.000;0.000;2022-08-03T08:26:31;101075.44;;;23.39;46.38
62976;BME280;49071;0.000;0.000;2022-08-03T08:29:32;101060.06;;;23.40;46.06
62976;BME280;49071;0.000;0.000;2022-08-03T08:32:32;101064.72;;;23.43;46.09
62976;BME280;49071;0.000;0.000;2022-08-03T08:35:32;101061.13;;;23.43;46.42
62976;BME280;49071;0.000;0.000;2022-08-03T08:38:33;101055.78;;;23.45;46.58
62976;BME280;49071;0.000;0.000;2022-08-03T08:41:33;101065.00;;;23.46;46.35
62976;BME280;49071;0.000;0.000;2022-08-03T08:44:34;101057.84;;;23.45;46.74
62976;BME280;49071;0.000;0.000;2022-08-03T08:47:38;101063.47;;;23.45;46.78
62976;BME280;49071;0.000;0.000;2022-08-03T08:50:39;101067.06;;;23.45;46.85
62976;BME280;49071;0.000;0.000;2022-08-03T08:53:40;101071.69;;;23.48;46.54
62976;BME280;49071;0.000;0.000;2022-08-03T08:56:42;101064.03;;;23.49;46.82
62976;BME280;49071;0.000;0.000;2022-08-03T08:59:43;101069.94;;;23.51;46.84
62976;BME280;49071;0.000;0.000;2022-08-03T09:02:44;101070.22;;;23.53;46.50
62976;BME280;49071;0.000;0.000;2022-08-03T09:05:44;101067.41;;;23.53;46.63
62976;BME280;49071;0.000;0.000;2022-08-03T09:08:45;101062.28;;;23.51;47.04
62976;BME280;49071;0.000;0.000;2022-08-03T09:11:46;101060.22;;;23.52;46.80
62976;BME280;49071;0.000;0.000;2022-08-03T09:14:47;101061.78;;;23.53;47.11
62976;BME280;49071;0.000;0.000;2022-08-03T09:17:48;101068.47;;;23.55;46.59
62976;BME280;49071;0.000;0.000;2022-08-03T09:20:49;101067.97;;;23.57;46.67
62976;BME280;49071;0.000;0.000;2022-08-03T09:23:50;101064.69;;;23.58;46.67
62976;BME280;49071;0.000;0.000;2022-08-03T09:26:51;101052.59;;;23.58;46.90
62976;BME280;49071;0.000;0.000;2022-08-03T09:29:53;101054.47;;;23.61;46.70
62976;BME280;49071;0.000;0.000;2022-08-03T09:32:58;101053.94;;;23.62;46.84
62976;BME280;49071;0.000;0.000;2022-08-03T09:35:58;101045.00;;;23.64;46.61
62976;BME280;49071;0.000;0.000;2022-08-03T09:39:06;101050.66;;;23.64;46.59
62976;BME280;49071;0.000;0.000;2022-08-03T09:42:08;101053.47;;;23.64;46.99
62976;BME280;49071;0.000;0.000;2022-08-03T09:45:08;101046.53;;;23.65;46.75
62976;BME280;49071;0.000;0.000;2022-08-03T09:48:28;101046.84;;;23.67;47.21
62976;BME280;49071;0.000;0.000;2022-08-03T09:51:35;101039.66;;;23.66;46.99
62976;BME280;49071;0.000;0.000;2022-08-03T09:54:36;101038.38;;;23.67;46.84
62976;BME280;49071;0.000;0.000;2022-08-03T09:57:36;101042.75;;;23.68;46.94
62976;BME280;49071;0.000;0.000;2022-08-03T10:00:56;101036.59;;;23.70;46.91
62976;BME280;49071;0.000;0.000;2022-08-03T10:03:56;101028.91;;;23.70;47.21
62976;BME280;49071;0.000;0.000;2022-08-03T10:07:15;101033.91;;;23.75;46.96
62976;BME280;49071;0.000;0.000;2022-08-03T10:10:16;101024.34;;;23.73;46.90
62976;BME280;49071;0.000;0.000;2022-08-03T10:13:17;101029.50;;;23.74;47.12
62976;BME280;49071;0.000;0.000;2022-08-03T10:16:17;101026.69;;;23.74;47.22
62976;BME280;49071;0.000;0.000;2022-08-03T10:19:17;101022.63;;;23.75;47.30
62976;BME280;49071;0.000;0.000;2022-08-03T10:22:19;101019.00;;;23.75;47.21
62976;BME280;49071;0.000;0.000;2022-08-03T10:25:20;101023.88;;;23.74;47.29
62976;BME280;49071;0.000;0.000;2022-08-03T10:28:21;101015.69;;;23.76;47.36
62976;BME280;49071;0.000;0.000;2022-08-03T10:31:22;101020.06;;;23.77;46.91
62976;BME280;49071;0.000;0.000;2022-08-03T10:34:24;101016.75;;;23.79;47.07
62976;BME280;49071;0.000;0.000;2022-08-03T10:37:25;101009.56;;;23.78;47.41
62976;BME280;49071;0.000;0.000;2022-08-03T10:40:29;101002.38;;;23.77;47.56
62976;BME280;49071;0.000;0.000;2022-08-03T10:43:35;101008.53;;;23.75;47.20
62976;BME280;49071;0.000;0.000;2022-08-03T10:46:40;101004.69;;;23.78;47.19
62976;BME280;49071;0.000;0.000;2022-08-03T10:49:41;101008.56;;;23.81;47.29
62976;BME280;49071;0.000;0.000;2022-08-03T10:52:57;101002.94;;;23.81;47.40
62976;BME280;49071;0.000;0.000;2022-08-03T10:55:57;100995.53;;;23.83;47.13
62976;BME280;49071;0.000;0.000;2022-08-03T10:59:55;100997.56;;;23.83;47.29
62976;BME280;49071;0.000;0.000;2022-08-03T11:06:15;100984.25;;;23.83;47.25
62976;BME280;49071;0.000;0.000;2022-08-03T11:09:18;100980.13;;;23.84;47.29
62976;BME280;49071;0.000;0.000;2022-08-03T11:12:28;100978.88;;;23.85;47.26
62976;BME280;49071;0.000;0.000;2022-08-03T11:15:32;100981.69;;;23.85;47.33
62976;BME280;49071;0.000;0.000;2022-08-03T11:18:33;100972.47;;;23.85;47.01
62976;BME280;49071;0.000;0.000;2022-08-03T11:25:06;100971.19;;;23.86;47.20
62976;BME280;49071;0.000;0.000;2022-08-03T11:28:27;100968.38;;;23.86;47.25
62976;BME280;49071;0.000;0.000;2022-08-03T11:34:29;100971.94;;;23.87;47.25
62976;BME280;49071;0.000;0.000;2022-08-03T11:37:29;100969.13;;;23.87;47.21
62976;BME280;49071;0.000;0.000;2022-08-03T11:46:36;100963.78;;;23.89;47.25
62976;BME280;49071;0.000;0.000;2022-08-03T11:49:37;100960.19;;;23.88;47.25
62976;BME280;49071;0.000;0.000;2022-08-03T11:52:39;100958.13;;;23.89;47.12
62976;BME280;49071;0.000;0.000;2022-08-03T11:55:39;100946.09;;;23.88;46.88
62976;BME280;49071;0.000;0.000;2022-08-03T11:58:45;100949.19;;;23.90;47.01
62976;BME280;49071;0.000;0.000;2022-08-03T12:01:47;100950.44;;;23.89;47.14
62976;BME280;49071;0.000;0.000;2022-08-03T12:04:54;100952.78;;;23.91;46.69
62976;BME280;49071;0.000;0.000;2022-08-03T12:07:59;100946.38;;;23.90;46.92
62976;BME280;49071;0.000;0.000;2022-08-03T12:11:00;100941.50;;;23.91;47.04
62976;BME280;49071;0.000;0.000;2022-08-03T12:14:00;100940.19;;;23.92;46.89
62976;BME280;49071;0.000;0.000;2022-08-03T12:17:02;100945.06;;;23.91;47.27
62976;BME280;49071;0.000;0.000;2022-08-03T12:20:03;100943.81;;;23.92;46.97
62976;BME280;49071;0.000;0.000;2022-08-03T12:23:04;100935.34;;;23.92;46.83
62976;BME280;49071;0.000;0.000;2022-08-03T12:26:08;100930.50;;;23.93;47.02
62976;BME280;49071;0.000;0.000;2022-08-03T12:29:15;100928.91;;;23.92;46.67
62976;BME280;49071;0.000;0.000;2022-08-03T12:32:15;100925.63;;;23.93;46.72
62976;BME280;49071;0.000;0.000;2022-08-03T12:35:22;100929.97;;;23.94;46.53
62976;BME280;49071;0.000;0.000;2022-08-03T12:38:25;100927.16;;;23.94;46.95
62976;BME280;49071;0.000;0.000;2022-08-03T12:41:30;100926.66;;;23.96;46.98
62976;BME280;49071;0.000;0.000;2022-08-03T12:44:34;100919.47;;;23.95;46.73
62976;BME280;49071;0.000;0.000;2022-08-03T12:47:51;100921.00;;;23.96;46.89
62976;BME280;49071;0.000;0.000;2022-08-03T12:50:51;100911.28;;;23.97;46.78
62976;BME280;49071;0.000;0.000;2022-08-03T12:53:52;100916.66;;;23.95;46.57
62976;BME280;49071;0.000;0.000;2022-08-03T13:00:08;100920.56;;;24.03;46.86
62976;BME280;49071;0.000;0.000;2022-08-03T13:03:09;100917.03;;;24.08;46.84
62976;BME280;49071;0.000;0.000;2022-08-03T13:06:12;100913.97;;;24.12;46.92
62976;BME280;49071;0.000;0.000;2022-08-03T13:09:13;100915.53;;;24.13;46.92
62976;BME280;49071;0.000;0.000;2022-08-03T13:12:15;100912.22;;;24.14;46.93
62976;BME280;49071;0.000;0.000;2022-08-03T13:15:16;100906.03;;;24.16;47.08
62976;BME280;49071;0.000;0.000;2022-08-03T13:18:16;100906.03;;;24.16;46.71
62976;BME280;49071;0.000;0.000;2022-08-03T13:21:17;100899.16;;;24.17;46.96
62976;BME280;49071;0.000;0.000;2022-08-03T13:24:17;100902.25;;;24.19;46.96
62976;BME280;49071;0.000;0.000;2022-08-03T13:27:18;100904.53;;;24.20;47.00
62976;BME280;49071;0.000;0.000;2022-08-03T13:30:18;100900.47;;;24.21;47.25
62976;BME280;49071;0.000;0.000;2022-08-03T13:33:18;100902.00;;;24.22;46.96
62976;BME280;49071;0.000;0.000;2022-08-03T13:36:18;100901.53;;;24.30;47.03
62976;BME280;49071;0.000;0.000;2022-08-03T13:39:19;100897.69;;;24.27;47.36
62976;BME280;49071;0.000;0.000;2022-08-03T13:42:19;100900.50;;;24.27;46.96
62976;BME280;49071;0.000;0.000;2022-08-03T13:45:20;100888.72;;;24.28;47.33
62976;BME280;49071;0.000;0.000;2022-08-03T13:48:20;100885.38;;;24.30;47.19
62976;BME280;49071;0.000;0.000;2022-08-03T13:51:20;100894.63;;;24.31;47.39
62976;BME280;49071;0.000;0.000;2022-08-03T13:54:21;100892.06;;;24.33;47.20
62976;BME280;49071;0.000;0.000;2022-08-03T13:57:21;100884.41;;;24.33;47.06
62976;BME280;49071;0.000;0.000;2022-08-03T14:00:21;100871.53;;;24.32;47.36
62976;BME280;49071;0.000;0.000;2022-08-03T14:03:24;100883.59;;;24.33;47.12
62976;BME280;49071;0.000;0.000;2022-08-03T14:06:25;100868.72;;;24.32;47.43
62976;BME280;49071;0.000;0.000;2022-08-03T14:09:25;100868.72;;;24.32;47.19
62976;BME280;49071;0.000;0.000;2022-08-03T14:12:25;100864.13;;;24.35;47.36
62976;BME280;49071;0.000;0.000;2022-08-03T14:15:26;100861.56;;;24.37;47.56
62976;BME280;49071;0.000;0.000;2022-08-03T14:18:27;100856.41;;;24.35;47.58
62976;BME280;49071;0.000;0.000;2022-08-03T14:21:27;100860.28;;;24.38;47.15
62976;BME280;49071;0.000;0.000;2022-08-03T14:24:28;100858.28;;;24.44;47.49
62976;BME280;49071;0.000;0.000;2022-08-03T14:27:28;100860.38;;;24.49;47.16
62976;BME280;49071;0.000;0.000;2022-08-03T14:30:28;100856.53;;;24.52;47.38
62976;BME280;49071;0.000;0.000;2022-08-03T14:33:30;100863.00;;;24.53;47.41
62976;BME280;49071;0.000;0.000;2022-08-03T14:36:30;100860.66;;;24.51;47.66
62976;BME280;49071;0.000;0.000;2022-08-03T14:39:30;100865.00;;;24.52;47.46
62976;BME280;49071;0.000;0.000;2022-08-03T14:42:30;100863.75;;;24.53;47.68
62976;BME280;49071;0.000;0.000;2022-08-03T14:45:31;100861.44;;;24.52;47.87
62976;BME280;49071;0.000;0.000;2022-08-03T14:48:31;100862.19;;;24.52;47.59
62976;BME280;49071;0.000;0.000;2022-08-03T14:51:31;100863.47;;;24.51;47.66
62976;BME280;49071;0.000;0.000;2022-08-03T14:54:32;100861.44;;;24.52;47.84
62976;BME280;49071;0.000;0.000;2022-08-03T14:57:32;100860.94;;;24.53;47.62
62976;BME280;49071;0.000;0.000;2022-08-03T15:00:32;100853.50;;;24.56;47.51
62976;BME280;49071;0.000;0.000;2022-08-03T15:03:32;100842.44;;;24.52;47.59
62976;BME280;49071;0.000;0.000;2022-08-03T15:06:33;100847.31;;;24.52;47.39
62976;BME280;49071;0.000;0.000;2022-08-03T15:09:33;100845.53;;;24.54;47.62
62976;BME280;49071;0.000;0.000;2022-08-03T15:12:34;100847.31;;;24.52;47.67
62976;BME280;49071;0.000;0.000;2022-08-03T15:15:34;100839.09;;;24.54;47.57
62976;BME280;49071;0.000;0.000;2022-08-03T15:18:34;100837.06;;;24.54;47.42
62976;BME280;49071;0.000;0.000;2022-08-03T15:21:35;100828.09;;;24.56;47.38
62976;BME280;49071;0.000;0.000;2022-08-03T15:24:35;100831.19;;;24.58;47.53
62976;BME280;49071;0.000;0.000;2022-08-03T15:27:35;100834.03;;;24.63;47.45
62976;BME280;49071;0.000;0.000;2022-08-03T15:30:35;100832.50;;;24.62;47.64
62976;BME280;49071;0.000;0.000;2022-08-03T15:33:37;100837.88;;;24.66;47.75
62976;BME280;49071;0.000;0.000;2022-08-03T15:36:38;100828.66;;;24.65;47.55
62976;BME280;49071;0.000;0.000;2022-08-03T15:39:39;100830.19;;;24.66;47.74
62976;BME280;49071;0.000;0.000;2022-08-03T15:42:39;100820.19;;;24.65;47.63
62976;BME280;49071;0.000;0.000;2022-08-03T15:45:39;100816.84;;;24.67;47.88
62976;BME280;49071;0.000;0.000;2022-08-03T15:48:41;100818.38;;;24.68;47.62
62976;BME280;49071;0.000;0.000;2022-08-03T15:51:42;100814.78;;;24.67;47.62
62976;BME280;49071;0.000;0.000;2022-08-03T15:54:42;100817.09;;;24.69;47.82
62976;BME280;49071;0.000;0.000;2022-08-03T15:57:42;100809.91;;;24.68;47.70
62976;BME280;49071;0.000;0.000;2022-08-03T16:00:42;100813.50;;;24.68;48.10
62976;BME280;49071;0.000;0.000;2022-08-03T16:03:43;100810.94;;;24.70;47.90
62976;BME280;49071;0.000;0.000;2022-08-03T16:06:43;100816.59;;;24.70;47.74
62976;BME280;49071;0.000;0.000;2022-08-03T16:09:43;100811.72;;;24.71;47.62
62976;BME280;49071;0.000;0.000;2022-08-03T16:12:44;100808.63;;;24.69;47.97
62976;BME280;49071;0.000;0.000;2022-08-03T16:15:44;100810.94;;;24.70;47.77
62976;BME280;49071;0.000;0.000;2022-08-03T16:18:44;100810.69;;;24.68;48.29
62976;BME280;49071;0.000;0.000;2022-08-03T16:21:44;100813.28;;;24.72;48.02
62976;BME280;49071;0.000;0.000;2022-08-03T16:24:45;100807.38;;;24.76;47.85
62976;BME280;49071;0.000;0.000;2022-08-03T16:27:45;100801.72;;;24.76;47.84
62976;BME280;49071;0.000;0.000;2022-08-03T16:30:46;100804.28;;;24.74;47.85
62976;BME280;49071;0.000;0.000;2022-08-03T16:33:46;100809.19;;;24.79;48.07
62976;BME280;49071;0.000;0.000;2022-08-03T16:36:46;100808.94;;;24.77;48.01
62976;BME280;49071;0.000;0.000;2022-08-03T16:39:47;100807.16;;;24.85;47.79
62976;BME280;49071;0.000;0.000;2022-08-03T16:42:47;100805.88;;;24.86;47.89
62976;BME280;49071;0.000;0.000;2022-08-03T16:45:47;100808.97;;;24.88;48.22
62976;BME280;49071;0.000;0.000;2022-08-03T16:48:47;100807.44;;;24.87;47.85
62976;BME280;49071;0.000;0.000;2022-08-03T16:51:48;100806.88;;;24.83;47.89
62976;BME280;49071;0.000;0.000;2022-08-03T16:54:48;100815.09;;;24.81;47.97
62976;BME280;49071;0.000;0.000;2022-08-03T16:57:49;100809.97;;;24.85;48.11
62976;BME280;49071;0.000;0.000;2022-08-03T17:00:49;100811.25;;;24.84;48.14
62976;BME280;49071;0.000;0.000;2022-08-03T17:03:50;100809.72;;;24.83;48.12
62976;BME280;49071;0.000;0.000;2022-08-03T17:06:50;100817.97;;;24.86;48.08
62976;BME280;49071;0.000;0.000;2022-08-03T17:09:51;100813.84;;;24.87;48.42
62976;BME280;49071;0.000;0.000;2022-08-03T17:12:51;100819.50;;;24.87;47.93
62976;BME280;49071;0.000;0.000;2022-08-03T17:15:51;100821.81;;;24.89;48.11
62976;BME280;49071;0.000;0.000;2022-08-03T17:18:55;100817.69;;;24.90;48.43
62976;BME280;49071;0.000;0.000;2022-08-03T17:22:04;100834.38;;;24.88;48.08
62976;BME280;49071;0.000;0.000;2022-08-03T17:25:07;100828.47;;;24.86;48.13
62976;BME280;49071;0.000;0.000;2022-08-03T17:28:08;100825.16;;;24.87;48.09
62976;BME280;49071;0.000;0.000;2022-08-03T17:31:09;100827.47;;;24.89;48.38
62976;BME280;49071;0.000;0.000;2022-08-03T17:34:17;100826.44;;;24.92;48.17
62976;BME280;49071;0.000;0.000;2022-08-03T17:37:18;100832.09;;;24.92;48.17
62976;BME280;49071;0.000;0.000;2022-08-03T17:40:19;100831.34;;;24.91;48.04
62976;BME280;49071;0.000;0.000;2022-08-03T17:43:20;100831.59;;;24.94;48.12
62976;BME280;49071;0.000;0.000;2022-08-03T17:46:20;100841.06;;;24.90;48.17
62976;BME280;49071;0.000;0.000;2022-08-03T17:49:21;100838.78;;;24.95;48.08
62976;BME280;49071;0.000;0.000;2022-08-03T17:55:22;100839.53;;;24.89;48.26
62976;BME280;49071;0.000;0.000;2022-08-03T17:58:28;100837.75;;;24.92;48.34
62976;BME280;49071;0.000;0.000;2022-08-03T18:05:12;100833.91;;;24.95;48.33
62976;BME280;49071;0.000;0.000;2022-08-03T18:08:17;100838.03;;;25.00;48.34
62976;BME280;49071;0.000;0.000;2022-08-03T18:11:22;100838.84;;;25.06;48.34
62976;BME280;49071;0.000;0.000;2022-08-03T18:17:25;100841.91;;;25.02;48.31
62976;BME280;49071;0.000;0.000;2022-08-03T18:20:26;100843.69;;;25.00;48.38
62976;BME280;49071;0.000;0.000;2022-08-03T18:23:27;100846.78;;;25.02;48.66
62976;BME280;49071;0.000;0.000;2022-08-03T18:26:28;100848.31;;;25.03;48.66
62976;BME280;49071;0.000;0.000;2022-08-03T18:29:29;100852.97;;;25.11;48.42
62976;BME280;49071;0.000;0.000;2022-08-03T18:32:29;100841.19;;;25.13;48.26
62976;BME280;49071;0.000;0.000;2022-08-03T18:35:29;100847.84;;;25.16;48.56
62976;BME280;49071;0.000;0.000;2022-08-03T18:38:30;100850.91;;;25.12;48.25
62976;BME280;49071;0.000;0.000;2022-08-03T18:41:31;100851.69;;;25.12;48.55
62976;BME280;49071;0.000;0.000;2022-08-03T18:44:31;100856.56;;;25.12;48.41
62976;BME280;49071;0.000;0.000;2022-08-03T18:50:49;100855.81;;;25.11;48.29
62976;BME280;49071;0.000;0.000;2022-08-03T18:53:52;100850.91;;;25.12;48.51
62976;BME280;49071;0.000;0.000;2022-08-03T18:56:55;100858.94;;;25.19;48.46
62976;BME280;49071;0.000;0.000;2022-08-03T19:00:04;100853.56;;;25.21;48.44
62976;BME280;49071;0.000;0.000;2022-08-03T19:03:07;100853.81;;;25.23;48.74
62976;BME280;49071;0.000;0.000;2022-08-03T19:06:14;100857.19;;;25.27;48.66
62976;BME280;49071;0.000;0.000;2022-08-03T19:09:26;100859.75;;;25.25;48.68
62976;BME280;49071;0.000;0.000;2022-08-03T19:12:37;100859.22;;;25.27;48.74
62976;BME280;49071;0.000;0.000;2022-08-03T19:15:41;100865.41;;;25.31;48.71
62976;BME280;49071;0.000;0.000;2022-08-03T19:18:46;100860.00;;;25.27;48.57
62976;BME280;49071;0.000;0.000;2022-08-03T19:21:48;100863.56;;;25.22;48.48
62976;BME280;49071;0.000;0.000;2022-08-03T19:24:49;100863.59;;;25.28;48.73
62976;BME280;49071;0.000;0.000;2022-08-03T19:27:51;100866.44;;;25.28;48.89
62976;BME280;49071;0.000;0.000;2022-08-03T19:30:52;100873.34;;;25.27;48.84
62976;BME280;49071;0.000;0.000;2022-08-03T19:33:55;100867.72;;;25.32;48.93
62976;BME280;49071;0.000;0.000;2022-08-03T19:36:57;100864.38;;;25.34;48.78
62976;BME280;49071;0.000;0.000;2022-08-03T19:39:58;100858.22;;;25.36;48.79
62976;BME280;49071;0.000;0.000;2022-08-03T19:43:07;100861.81;;;25.36;48.79
62976;BME280;49071;0.000;0.000;2022-08-03T19:46:11;100864.13;;;25.38;48.87
62976;BME280;49071;0.000;0.000;2022-08-03T19:49:13;100864.91;;;25.38;48.95
62976;BME280;49071;0.000;0.000;2022-08-03T19:52:14;100864.91;;;25.38;48.97
62976;BME280;49071;0.000;0.000;2022-08-03T19:55:16;100866.44;;;25.39;48.80
62976;BME280;49071;0.000;0.000;2022-08-03T19:58:16;100866.69;;;25.41;48.87
62976;BME280;49071;0.000;0.000;2022-08-03T20:01:17;100860.78;;;25.39;48.69
62976;BME280;49071;0.000;0.000;2022-08-03T20:04:17;100860.78;;;25.39;48.60
62976;BME280;49071;0.000;0.000;2022-08-03T20:07:17;100862.06;;;25.32;48.65
62976;BME280;49071;0.000;0.000;2022-08-03T20:10:18;100868.50;;;25.27;47.40
62976;BME280;49071;0.000;0.000;2022-08-03T20:13:19;100868.72;;;25.24;47.55
62976;BME280;49071;0.000;0.000;2022-08-03T20:16:20;100868.19;;;25.20;47.94
62976;BME280;49071;0.000;0.000;2022-08-03T20:19:20;100871.81;;;25.20;47.00
62976;BME280;49071;0.000;0.000;2022-08-03T20:22:30;100862.84;;;25.27;46.71
62976;BME280;49071;0.000;0.000;2022-08-03T20:25:34;100856.38;;;25.21;46.84
